Blooming Grove, New York
Current Conditions -  °F | °C
As of 1:45 AM on Sunday 23 Nov 2014 (Local Time) from KSWF Reporting Station
Broken Clouds Broken Clouds  
Wind Chill:   Ceiling: 10000
Heat Index:   Visibility: 10mi
Dew Point: -6°   Wind: 6mph
Humidity: 49%   Direction: 240°WSW
Pressure: 30.16"   Gusts: NA
Location:  41.41°N, 74.19°W
Report Text: KSWF 230645Z 24005KT 10SM BKN100 04/M06 A3016
Loading
Personal Weather Stations






























Interactive Weather Map New forecast layout! Learn more

10-Day Weather Forecast

Advertisements
Track Severe Weather on mobile